Knoxville, TN (37998)

3:57 AM EDT on September 17, 2014 (GMT -0400)
Shenandoah | Change Station
CLOSE
Current Station
Personal Weather Station
Location: Seymour, TN
Elevation: 1076 ft
Nearby Weather Stations

Elev 1076 ft 35.86 °N, 83.77 °W | Updated 19 seconds ago

Overcast
Overcast
62.6 °F
Feels Like 62.6 °F
N
0.0
Wind Variable Wind from North
Gusts 0.0 mph

Today
High -- | Low -- °F
--% Chance of Precip.
Yesterday
High -- | Low -- °F
Precip. -- in
7:19 AM 7:39 PM
Last Quarter, 38% visible
Pressure 29.99 in
Visibility 10.0 miles
Clouds Scattered Clouds 3500 ft
Overcast 8000 ft
Dew Point 62 °F
Humidity 99%
Rainfall 0.00 in
Snow Depth Not available.
UV 0 out of 12
Pollen 7.50 out of 12
Ozone Good
PM2.5 Good
Flu Activity Not available.
METAR KTYS 170653Z 35004KT 10SM SCT035 OVC080 17/15 A3001 RMK AO2 SLP153 T01720150

More Conditions Fewer Conditions

Pressure 29.99 in
Visibility 10.0 miles
Clouds Scattered Clouds 3500 ft
Overcast 8000 ft
Dew Point 62 °F
Humidity 99%
Rainfall 0.00 in
Snow Depth Not available.
UV 0 out of 12
Pollen 7.50 out of 12
Ozone Good
PM2.5 Good
Flu Activity Not available.
METAR KTYS 170653Z 35004KT 10SM SCT035 OVC080 17/15 A3001 RMK AO2 SLP153 T01720150

More Conditions Fewer Conditions

10-Day Weather Forecast

Almanac

Astronomy

Sep. 17, 2014 Rise Set
Actual Time 7:19 AM EDT 7:39 PM EDT
Civil Twilight 6:53 AM EDT 8:04 PM EDT
Nautical Twilight 6:23 AM EDT 8:34 PM EDT
Astronomical Twilight 5:52 AM EDT 9:05 PM EDT
Moon 1:26 AM EDT 3:40 PM EDT
Length of Visible Light 13h 11m
Length of Day
12h 20m
Tomorrow will be 2m 15s shorter.
Last Quarter, 38% of the Moon is Illuminated
Today
Last Quarter
Sep 24
New
Oct 1
First Quarter
Oct 8
Full
Oct 15
Last Quarter

Today's Extremes

State Highs State Lows

Community

WunderPhotos

Upload Photos

1,753,976 photos uploaded!

Nearby

Air Quality

  Air Quality AQ Index Pollutant
Yesterday Good
PM2.5
Yesterday Good
OZONE
Current Good
PM2.5
Current Good
OZONE
Wednesday Good
PM2.5
Wednesday Good
OZONE
Thursday Good
OZONE
Thursday Good
PM2.5

Snow Depth

Station Depth Elevation
No new snow has been reported.

Earthquake Activity

City Distance Mag. Time & Date
No recent earthquake activity has been reported nearby.
Minimum magnitude displayed is 2.5.

Coastal Water Temperatures

Place Temperature
No Stations Reporting

Nearby Weather Stations